Weather Top, Arizona (BMGR) Weather observations

Data are for 10 minute period ending at time listed.
 Day   Time   Solar   Ave.   Ave.  Ave.  Vector  Max.   Total    
  of    of     Rad.   Air    Rel.  Wind   Wind   Wind  Precip.   
Year   Day            Temp.  Hum.  Speed  Dir.   Gust            
2026   (MST)  Kw/m2    F      %     mph   deg.    mph    in.     
-----------------------------------------------------------------
 124    5:35   0.00   61.1    56    4.3   195     8.2    0.00 
 124    5:40   0.00   61.0    56    3.6   202     6.5    0.00 
 124    5:45   0.00   60.9    56    5.1   203     8.2    0.00 
 124    5:50   0.00   60.9    56    6.4   208     9.9    0.00 
 124    5:55   0.01   60.9    56    4.6   215     9.3    0.00 
 124    6:00   0.01   60.7    57    4.8   224     9.3    0.00 
 124    6:05   0.02   60.5    57    3.9   225     7.1    0.00 
 124    6:10   0.02   60.5    58    4.6   229     7.7    0.00 
 124    6:15   0.03   60.6    58    5.7   226     8.2    0.00 
 124    6:20   0.03   60.6    58    6.7   214    12.7    0.00 
 124    6:25   0.04   60.6    58    6.4   207     9.9    0.00 
 124    6:30   0.05   60.6    58    5.5   203    10.5    0.00 
 124    6:35   0.05   60.5    58    7.5   198    11.0    0.00 
 124    6:40   0.06   60.5    58    6.7   176    11.0    0.00 
 124    6:45   0.08   60.7    58    5.8   154     9.9    0.00 
 124    6:50   0.09   60.9    57    6.2   169    10.5    0.00 
 124    6:55   0.11   61.0    56    8.3   166    11.0    0.00 
 124    7:00   0.11   61.2    55    9.2   198    13.3    0.00 
 124    7:05   0.12   61.3    56    9.9   203    14.4    0.00 
 124    7:10   0.11   61.2    56   10.2   208    17.2    0.00 
 124    7:15   0.13   61.0    56    9.5   204    13.8    0.00 
 124    7:20   0.15   61.1    56    7.8   200    12.7    0.00 
 124    7:25   0.16   61.1    56    7.8   212    13.3    0.00 
 124    7:30   0.16   60.9    57    8.0   211    13.3    0.00 
 124    7:35   0.15   61.2    56    8.0   194    13.3    0.00 
 124    7:40   0.18   61.2    56    7.7   211    12.1    0.00 
 124    7:45   0.19   61.3    56    6.2   206    11.0    0.00 
 124    7:50   0.16   61.5    56    5.6   199     9.3    0.00 
 124    7:55   0.17   61.5    56    6.0   203     9.3    0.00 
 124    8:00   0.18   61.8    56    5.8   208     9.3    0.00 
 124    8:05   0.17   61.8    56    7.2   227     9.9    0.00 
 124    8:10   0.18   62.1    56    5.5   215     9.3    0.00 
 124    8:15   0.21   62.3    56    5.1   228     8.2    0.00 
 124    8:20   0.21   62.7    55    3.9   226     7.1    0.00 
 124    8:25   0.22   62.6    55    4.5   227     7.7    0.00 
 124    8:30   0.24   63.0    55    3.5   226     7.1    0.00 
 124    8:35   0.25   62.9    55    4.0   206     6.5    0.00 
 124    8:40   0.27   63.0    54    3.9   233     9.3    0.00 
 124    8:45   0.26   63.2    54    4.5   224     8.8    0.00 
 124    8:50   0.27   63.7    53    4.3   227     8.2    0.00 
 124    8:55   0.29   63.7    53    5.6   226     9.3    0.00 
 124    9:00   0.29   63.9    52    6.0   189     9.9    0.00 
 124    9:05   0.31   64.6    50    6.1   208    11.0    0.00 
 124    9:10   0.33   64.7    49    5.8   224     9.9    0.00 
 124    9:15   0.33   64.8    48    6.1   215     9.3    0.00 
 124    9:20   0.30   65.5    47    5.9   193    10.5    0.00 
 124    9:25   0.27   65.1    47    5.2   198     8.2    0.00 
 124    9:30   0.29   65.0    47    5.4   206    10.5    0.00 
 124    9:35   0.33   65.3    47    5.3   198     8.8    0.00 
 124    9:40   0.33   65.5    47    4.9   202     7.1    0.00 
 124    9:45   0.31   65.6    46    5.4   198     7.7    0.00 
 124    9:50   0.27   65.7    46    6.2   194     9.9    0.00 
 124    9:55   0.27   65.8    46    5.1   196     9.3    0.00 
 124   10:00   0.27   66.3    45    6.1   187     9.9    0.00 
 124   10:05   0.25   65.8    46    6.8   229    10.5    0.00 
 124   10:10   0.26   66.4    44    5.1   194     8.8    0.00 
 124   10:15   0.23   66.6    43    6.0   210    11.6    0.00 
 124   10:20   0.21   66.7    42    5.6   190     9.3    0.00 
 124   10:25   0.22   67.0    41    4.5   198     9.3    0.00 
 124   10:30   0.24   67.0    40    6.2   192    12.1    0.00 
 124   10:35   0.26   66.5    41    6.6   210    10.5    0.00 
 124   10:40   0.32   66.7    40    7.2   216    12.7    0.00 
 124   10:45   0.38   67.0    40    7.0   218    11.0    0.00 
 124   10:50   0.37   67.1    40    9.1   225    12.7    0.00 
 124   10:55   0.38   66.9    41    8.1   212    13.3    0.00 
 124   11:00   0.33   66.8    42    7.5   215    12.7    0.00 
 124   11:05   0.39   66.9    42    7.3   196    12.1    0.00 
 124   11:10   0.43   67.3    42    6.9   208    14.9    0.00 
 124   11:15   0.42   67.3    42    6.6   212    11.0    0.00 
 124   11:20   0.30   67.1    42    8.4   204    13.3    0.00 
 124   11:25   0.27   66.8    42    9.2   218    15.5    0.00 
 124   11:30   0.27   66.3    42    7.5   220    12.7    0.00 
 124   11:35   0.28   66.9    40    7.7   214    12.7    0.00 
 124   11:40   0.30   67.6    38    8.3   203    12.7    0.00 
 124   11:45   0.29   67.5    38    7.1   197    11.0    0.00 
 124   11:50   0.27   67.9    38    8.1   188    12.7    0.00 
 124   11:55   0.27   67.5    38    7.5   217    12.7    0.00 
 124   12:00   0.34   67.4    39    8.2   210    14.4    0.00 
 124   12:05   0.33   67.2    39    7.8   210    13.3    0.00 
 124   12:10   0.33   68.0    37    6.0   194    11.0    0.00 
 124   12:15   0.29   67.9    37    7.5   228    12.1    0.00 
 124   12:20   0.25   67.3    37    7.5   214    13.3    0.00 
 124   12:25   0.23   67.7    36    7.3   205    13.3    0.00 
 124   12:30   0.26   67.6    37    7.0   223    10.5    0.00 
 124   12:35   0.30   68.3    36    5.2   188     9.3    0.00 
 124   12:40   0.31   69.0    35    5.9   195     9.9    0.00 
 124   12:45   0.30   69.0    34    8.0   210    12.7    0.00 
 124   12:50   0.28   68.2    35   10.4   217    16.0    0.00 
 124   12:55   0.27   69.2    36    5.5   138    11.6    0.00 
 124   13:00   0.29   68.8    38    7.2   205    14.4    0.00 
 124   13:05   0.35   69.3    38    5.1    95    11.0    0.00 
 124   13:10   0.30   69.5    38    5.6   198    11.6    0.00 
 124   13:15   0.24   69.0    38    4.7   156    11.6    0.00 
 124   13:20   0.21   69.0    39    3.1    61     6.5    0.00 
 124   13:25   0.22   69.0    39    4.6   167     7.7    0.00 
 124   13:30   0.25   68.7    39    5.3   173     8.8    0.00 
 124   13:35   0.24   68.3    39    5.5   189     8.8    0.00 
 124   13:40   0.22   68.3    39    5.2   193     8.2    0.00 
 124   13:45   0.22   68.4    39    5.4   191    11.6    0.00 
 124   13:50   0.24   68.5    36    7.8   183    12.7    0.00 
 124   13:55   0.30   68.6    35    8.0   175    13.8    0.00 
 124   14:00   0.36   69.2    34    8.5   162    13.8    0.00 
 124   14:05   0.40   69.6    33    8.0   135    13.8    0.00 
 124   14:10   0.43   69.8    33    8.5   166    13.3    0.00 
 124   14:15   0.38   70.0    33    6.0   176    10.5    0.00 
 124   14:20   0.34   70.3    32    5.9   179     9.9    0.00 
 124   14:25   0.38   70.8    32    6.3   163    14.4    0.00 
 124   14:30   0.47   71.8    31    5.8   162     9.9    0.00 
 124   14:35   0.42   72.7    30    5.4   193     9.9    0.00 
 124   14:40   0.39   71.7    31    5.8   210    10.5    0.00 
 124   14:45   0.37   72.9    30    3.7    96     8.2    0.00 
 124   14:50   0.34   72.8    30    5.4   194    12.1    0.00 
 124   14:55   0.32   72.3    30    7.1   171    11.6    0.00 
 124   15:00   0.32   71.1    31    7.5   202    13.3    0.00 
 124   15:05   0.35   71.2    30    7.5   192    12.1    0.00 
 124   15:10   0.38   71.1    29    5.8   195     9.3    0.00 
 124   15:15   0.37   71.8    27    6.8   169    11.6    0.00 
 124   15:20   0.41   72.4    26    7.2   178    11.0    0.00 
 124   15:25   0.47   72.5    26    7.8   165    13.3    0.00 
 124   15:30   0.49   72.8    26    6.0   199    10.5    0.00 
 124   15:35   0.50   74.0    25    5.3   200     9.9    0.00 
 124   15:40   0.42   74.1    25    6.5   182    12.1    0.00 
 124   15:45   0.34   73.3    24    7.2   190    13.3    0.00 
 124   15:50   0.27   73.5    22    7.4   191    13.3    0.00 
 124   15:55   0.23   72.5    22    9.7   212    18.3    0.00 
 124   16:00   0.25   71.1    25    9.8   205    14.4    0.00 
 124   16:05   0.26   70.9    27    6.9   216    12.7    0.00 
 124   16:10   0.27   71.7    27    7.4   214    12.7    0.00 
 124   16:15   0.25   71.1    28    9.2   205    14.4    0.00 
 124   16:20   0.22   71.2    29    9.5   202    14.9    0.00 
 124   16:25   0.19   71.1    29    9.6   202    13.3    0.00 
 124   16:30   0.18   70.5    29   10.6   204    18.9    0.00 
 124   16:35   0.17   70.5    29   10.1   200    18.3    0.00 
 124   16:40   0.17   69.8    30   11.7   213    18.3    0.00 
 124   16:45   0.13   69.7    29   10.6   199    16.6    0.00 
 124   16:50   0.14   69.7    29   10.1   197    16.0    0.00 
 124   16:55   0.16   69.4    30    9.8   209    17.7    0.00 
 124   17:00   0.14   68.9    31   11.7   205    19.4    0.00 
 124   17:05   0.12   68.7    32   11.1   202    16.6    0.00 
 124   17:10   0.13   68.7    31   10.7   191    16.6    0.00 
 124   17:15   0.11   68.7    30    8.9   195    16.0    0.00 
 124   17:20   0.11   68.8    31    8.7   195    15.5    0.00 
 124   17:25   0.11   68.3    33   10.7   202    15.5    0.00 
 124   17:30   0.09   68.1    34    8.1   194    12.7    0.00 
 124   17:35   0.08   68.5    35    6.9   188    12.7    0.00 
 124   17:40   0.07   68.3    36    7.6   202    15.5    0.00 
 124   17:45   0.06   68.1    36   10.1   204    15.5    0.00 
 124   17:50   0.06   67.9    37    9.0   207    15.5    0.00 
 124   17:55   0.06   68.0    37   10.9   210    16.6    0.00 
 124   18:00   0.06   67.9    38    9.8   205    18.9    0.00 
 124   18:05   0.05   67.8    38   10.2   200    18.9    0.00 
 124   18:10   0.05   67.2    41   11.6   211    17.2    0.00 
 124   18:15   0.04   66.8    42   10.5   196    19.4    0.00 
 124   18:20   0.04   66.7    42   11.1   197    16.6    0.00 
 124   18:25   0.03   66.7    42   10.3   197    17.7    0.00 
 124   18:30   0.03   66.6    42    9.5   197    17.2    0.00 
 124   18:35   0.02   66.7    42    8.5   186    13.3    0.00 
 124   18:40   0.02   66.5    43   10.3   204    15.5    0.00 
 124   18:45   0.01   66.1    43    9.5   211    18.9    0.00 
 124   18:50   0.01   65.9    42   10.0   200    17.2    0.00 
 124   18:55   0.01   65.8    42    8.4   201    13.3    0.00 
 124   19:00   0.00   65.7    40    9.9   202    15.5    0.00 
 124   19:05   0.00   65.7    40    8.9   202    14.9    0.00 
 124   19:10   0.00   65.7    40    7.6   205    13.8    0.00 
 124   19:15   0.00   65.7    41   10.1   216    17.2    0.00 
 124   19:20   0.00   65.4    43   10.0   214    14.4    0.00 
 124   19:25   0.00   65.4    43    8.7   206    16.6    0.00 
 124   19:30   0.00   65.3    43    9.1   203    16.0    0.00 
 124   19:35   0.00   65.3    44    8.0   194    12.7    0.00 
 124   19:40   0.00   65.3    44    9.0   202    13.3    0.00 
 124   19:45   0.00   65.2    44    9.3   208    14.9    0.00 
 124   19:50   0.00   65.3    43    9.1   203    15.5    0.00 
 124   19:55   0.00   65.2    43    8.2   201    14.9    0.00 
 124   20:00   0.00   65.1    43    9.4   203    16.6    0.00 
 124   20:05   0.00   65.0    43    8.7   203    16.6    0.00 
 124   20:10   0.00   64.9    42   12.2   201    21.1    0.00 
 124   20:15   0.00   64.9    37   14.8   202    22.2    0.00 
 124   20:20   0.00   64.7    35   13.2   200    22.2    0.00 
 124   20:25   0.00   64.5    35   14.3   196    23.3    0.00 
 124   20:30   0.00   64.3    34   10.9   201    20.5    0.00 
 124   20:35   0.00   64.1    35   11.6   206    19.4    0.00 
 124   20:40   0.00   63.8    36   11.2   200    18.3    0.00 
 124   20:45   0.00   63.7    36   11.5   201    19.4    0.00 
 124   20:50   0.00   63.6    36    9.6   192    17.7    0.00 
 124   20:55   0.00   63.6    37    7.5   186    14.4    0.00 
 124   21:00   0.00   63.6    37    8.2   197    14.9    0.00 
 124   21:05   0.00   63.6    38    8.3   205    17.2    0.00 
 124   21:10   0.00   63.5    39    8.3   200    16.0    0.00 
 124   21:15   0.00   63.4    40    9.3   197    17.2    0.00 
 124   21:20   0.00   63.1    43    9.0   198    16.6    0.00 
 124   21:25   0.00   63.0    43    8.1   204    13.8    0.00 
 124   21:30   0.00   62.8    43   10.6   191    18.9    0.00 
 124   21:35   0.00   62.6    44    8.8   191    17.2    0.00 
 124   21:40   0.00   62.5    44    7.5   178    12.1    0.00 
 124   21:45   0.00   62.4    45   10.0   189    16.0    0.00 
 124   21:50   0.00   62.3    45    9.3   187    14.4    0.00 
 124   21:55   0.00   62.3    46    9.0   184    17.2    0.00 
 124   22:00   0.00   62.1    46   10.5   170    15.5    0.00 
 124   22:05   0.00   62.0    47    9.4   158    13.8    0.00 
 124   22:10   0.00   62.0    47    9.7   156    17.7    0.00 
 124   22:15   0.00   61.8    50   13.2   147    20.5    0.00 
 124   22:20   0.00   61.7    51   10.6   164    17.2    0.00 
 124   22:25   0.00   61.6    52   10.1   168    17.7    0.00 
 124   22:30   0.00   61.7    52    8.5   176    13.8    0.00 
 124   22:35   0.00   61.9    52    8.4   180    12.7    0.00 
 124   22:40   0.00   62.1    51    6.5   191    10.5    0.00 
 124   22:45   0.00   62.1    51    7.4   182    14.4    0.00 
 124   22:50   0.00   62.0    51    8.0   186    11.6    0.00 
 124   22:55   0.00   61.8    52    7.4   185    11.0    0.00 
 124   23:00   0.00   61.7    51    9.9   189    16.0    0.00 
 124   23:05   0.00   61.8    51    9.4   184    13.8    0.00 
 124   23:10   0.00   61.6    51    9.2   185    16.0    0.00 
 124   23:15   0.00   61.6    50    9.0   178    14.4    0.00 
 124   23:20   0.00   61.6    50    8.7   173    13.8    0.00 
 124   23:25   0.00   61.6    48    9.1   185    14.9    0.00 
 124   23:30   0.00   61.5    48    9.2   191    17.7    0.00 
 124   23:35   0.00   61.3    48   10.7   188    18.3    0.00 
 124   23:40   0.00   61.0    50   10.3   195    18.3    0.00 
 124   23:45   0.00   60.7    52   12.5   184    19.4    0.00 
 124   23:50   0.00   60.6    52    9.2   193    18.3    0.00 
 124   23:55   0.00   60.5    54    9.0   196    18.3    0.00 
 125    0:00   0.00   60.4    55    8.4   196    14.9    0.00 
 125    0:05   0.00   60.2    56    9.6   202    16.0    0.00 
 125    0:10   0.00   60.1    56    9.2   193    16.0    0.00 
 125    0:15   0.00   60.0    57    9.9   190    16.6    0.00 
 125    0:20   0.00   59.8    60   11.5   195    20.0    0.00 
 125    0:25   0.00   59.6    61   11.9   193    19.4    0.00 
 125    0:30   0.00   59.3    62   11.9   187    21.1    0.00 
 125    0:35   0.00   59.2    63   10.3   200    18.3    0.00 
 125    0:40   0.00   59.0    63   12.1   201    18.9    0.00 
 125    0:45   0.00   58.9    64   11.9   202    19.4    0.00 
 125    0:50   0.00   58.8    64   11.0   204    19.4    0.00 
 125    0:55   0.00   58.7    64   10.1   201    17.2    0.00 
 125    1:00   0.00   58.7    64    9.8   210    14.9    0.00 
 125    1:05   0.00   58.6    64    8.9   211    15.5    0.00 
 125    1:10   0.00   58.6    64    8.0   210    13.3    0.00 
 125    1:15   0.00   58.5    64    7.9   211    14.4    0.00 
 125    1:20   0.00   58.6    64    8.0   211    13.3    0.00 
 125    1:25   0.00   58.6    64    8.7   214    14.4    0.00 
 125    1:30   0.00   58.5    64    8.0   208    13.8    0.00 
 125    1:35   0.00   58.4    64    9.5   213    17.2    0.00 
 125    1:40   0.00   58.3    65    7.3   210    13.3    0.00 
 125    1:45   0.00   58.2    65    7.8   214    13.8    0.00 
 125    1:50   0.00   58.1    65    7.0   221    14.9    0.00 
 125    1:55   0.00   58.0    66    4.8   225     8.2    0.00 
 125    2:00   0.00   58.0    66    7.2   214    11.6    0.00 
 125    2:05   0.00   57.9    66    5.3   226     8.8    0.00 
 125    2:10   0.00   57.9    66    5.4   230    11.0    0.00 
 125    2:15   0.00   57.9    67    6.4   223    11.6    0.00 
 125    2:20   0.00   57.9    67    7.0   228    13.3    0.00 
 125    2:25   0.00   57.7    68    8.4   217    13.8    0.00 
 125    2:30   0.00   57.6    68    5.1   218     9.9    0.00 
 125    2:35   0.00   57.4    69    7.1   221    14.4    0.00 
 125    2:40   0.00   57.3    70    6.3   218    11.6    0.00 
 125    2:45   0.00   57.3    70    7.5   221    12.1    0.00 
 125    2:50   0.00   57.3    71    7.7   212    13.3    0.00 
 125    2:55   0.00   57.1    71    6.8   220    12.7    0.00 
 125    3:00   0.00   57.0    71    6.5   221    10.5    0.00 
 125    3:05   0.00   56.9    72    7.7   214    12.1    0.00 
 125    3:10   0.00   56.9    72    6.5   223    11.0    0.00 
 125    3:15   0.00   56.8    72    6.8   221    11.0    0.00 
 125    3:20   0.00   56.9    72    7.3   226    10.5    0.00 
 125    3:25   0.00   56.8    72    6.1   228     9.9    0.00 
 125    3:30   0.00   56.7    72    6.3   226    10.5    0.00 
 125    3:35   0.00   56.5    73    4.5   213     8.8    0.00 
 125    3:40   0.00   56.5    73    5.5   218     7.7    0.00 
 125    3:45   0.00   56.6    73    5.0   224     7.7    0.00 
 125    3:50   0.00   56.5    73    4.8   226     8.8    0.00 
 125    3:55   0.00   56.3    73    3.8   208     7.1    0.00 
 125    4:00   0.00   56.4    73    4.7   219     6.5    0.00 
 125    4:05   0.00   56.5    73    5.0   224     7.1    0.00 
 125    4:10   0.00   56.5    73    5.0   229     7.1    0.00 
 125    4:15   0.00   56.6    73    5.2   230     9.9    0.00 
 125    4:20   0.00   56.6    74    5.8   225     8.8    0.00 
 125    4:25   0.00   56.6    74    6.3   223     9.3    0.00 
 125    4:30   0.00   56.7    74    5.6   230     8.2    0.00 
 125    4:35   0.00   56.8    73    4.5   217     7.7    0.00 
 125    4:40   0.00   56.8    74    5.9   229     9.3    0.00 
 125    4:45   0.00   56.7    74    7.0   224    11.0    0.00 
 125    4:50   0.00   56.5    74    6.4   222     9.3    0.00 
 125    4:55   0.00   56.4    74    5.0   217     8.8    0.00 
 125    5:00   0.00   56.4    74    5.0   211     8.8    0.00 
 125    5:05   0.00   56.3    74    6.0   208     8.8    0.00 
 125    5:10   0.00   56.2    73    4.6   196     8.2    0.00 
 125    5:15   0.00   56.0    73    4.4   161     7.1    0.00 
 125    5:20   0.00   55.9    74    3.9   158     8.2    0.00 
 125    5:25   0.00   55.9    74    3.5   178     6.0    0.00 
 125    5:30   0.00   55.9    74    2.8   208     6.0    0.00 

Return to Weather Top graphs page.


Western Regional Climate Center,wrcc@dri.edu